Time;durP1;ratioP1;P1;durP2;ratioP2;P2;SDS_P1;SDS_P2;PMS_P1;PMS_P2;Temp;Humidity;BMP_temperature;BMP_pressure;BME280_temperature;BME280_humidity;BME280_pressure;Samples;Min_cycle;Max_cycle;Signal;HPM_P1;HPM_P2
2022/01/30 00:00:16;;;;;;;28.10;4.23;;;9.10;99.90;;;;;;4880129;29;20195;-91
2022/01/30 00:02:42;;;;;;;25.33;4.90;;;9.10;99.90;;;;;;4880062;29;20214;-90
2022/01/30 00:05:08;;;;;;;17.93;4.03;;;9.00;99.90;;;;;;4880399;29;20666;-91
2022/01/30 00:07:34;;;;;;;25.00;4.50;;;9.00;99.90;;;;;;4880658;29;20682;-88
2022/01/30 00:10:00;;;;;;;27.10;10.30;;;9.00;99.90;;;;;;4878592;29;20217;-89
2022/01/30 00:23:32;;;;;;;26.20;5.07;;;9.10;99.90;;;;;;4883712;29;20230;-91
2022/01/30 00:25:59;;;;;;;20.20;4.63;;;9.00;99.90;;;;;;4878094;29;20220;-84
2022/01/30 00:28:26;;;;;;;26.20;5.97;;;8.80;99.90;;;;;;4877373;29;20668;-84
2022/01/30 00:30:53;;;;;;;26.50;6.13;;;8.70;99.90;;;;;;4878107;29;20183;-84
2022/01/30 00:33:19;;;;;;;20.00;4.23;;;8.60;99.90;;;;;;4877991;29;20181;-84
2022/01/30 00:35:44;;;;;;;25.27;5.37;;;8.60;99.90;;;;;;4878334;29;20216;-85
2022/01/30 00:38:15;;;;;;;26.43;5.63;;;8.60;99.90;;;;;;4878614;29;20171;-85
2022/01/30 00:40:42;;;;;;;22.87;11.40;;;8.60;99.90;;;;;;4878521;29;20252;-85
2022/01/30 00:43:08;;;;;;;21.10;7.13;;;8.50;99.90;;;;;;4878297;29;20199;-84
2022/01/30 00:45:34;;;;;;;31.03;9.83;;;8.50;99.90;;;;;;4878105;29;20212;-84
2022/01/30 00:48:00;;;;;;;27.10;6.13;;;8.70;99.90;;;;;;4878452;29;20178;-84
2022/01/30 00:50:26;;;;;;;26.63;5.97;;;8.60;99.90;;;;;;4878849;29;20229;-84
2022/01/30 00:52:55;;;;;;;27.97;7.77;;;8.70;99.90;;;;;;4882052;29;20638;-85
2022/01/30 00:55:25;;;;;;;83.43;29.00;;;8.70;99.90;;;;;;4882082;29;20183;-85
2022/01/30 00:57:51;;;;;;;32.77;10.10;;;8.60;99.90;;;;;;4881693;29;20211;-85
2022/01/30 01:00:17;;;;;;;25.77;5.27;;;8.50;99.90;;;;;;4881895;29;20226;-84
2022/01/30 01:02:44;;;;;;;29.43;8.87;;;8.50;99.90;;;;;;4881955;29;20195;-84
2022/01/30 01:05:10;;;;;;;18.97;4.97;;;8.60;99.90;;;;;;4881915;29;20589;-84
2022/01/30 01:07:39;;;;;;;29.67;8.50;;;8.60;99.90;;;;;;4882268;29;20173;-84
2022/01/30 01:23:36;;;;;;;23.80;6.43;;;8.60;99.90;;;;;;4882583;29;20863;-85
2022/01/30 01:26:01;;;;;;;30.07;5.63;;;8.60;99.90;;;;;;4881544;29;20622;-84
2022/01/30 01:28:27;;;;;;;25.80;5.77;;;8.50;99.90;;;;;;4881584;29;20177;-86
2022/01/30 01:30:54;;;;;;;22.83;4.87;;;8.50;99.90;;;;;;4881534;29;20170;-86
2022/01/30 01:33:21;;;;;;;28.27;5.03;;;8.40;99.90;;;;;;4881628;29;20178;-84
2022/01/30 01:35:47;;;;;;;28.03;5.63;;;8.50;99.90;;;;;;4881279;29;20179;-84
2022/01/30 01:38:15;;;;;;;21.33;4.87;;;8.40;99.90;;;;;;4881349;29;20186;-84
2022/01/30 01:40:50;;;;;;;24.33;4.87;;;8.30;99.90;;;;;;4881665;29;20295;-86
2022/01/30 01:43:16;;;;;;;22.67;4.20;;;8.30;99.90;;;;;;4880979;29;20254;-84
2022/01/30 01:45:41;;;;;;;16.93;4.07;;;8.20;99.90;;;;;;4881616;29;20261;-84
2022/01/30 01:48:13;;;;;;;21.80;4.83;;;8.20;99.90;;;;;;4881145;29;20191;-84
2022/01/30 01:50:43;;;;;;;19.90;5.07;;;8.10;99.90;;;;;;4880897;29;20186;-84
2022/01/30 01:53:12;;;;;;;17.90;4.60;;;8.20;99.90;;;;;;4881112;29;20187;-83
2022/01/30 01:55:39;;;;;;;23.27;4.43;;;8.10;99.90;;;;;;4881084;29;20198;-84
2022/01/30 01:58:05;;;;;;;19.23;5.23;;;8.10;99.90;;;;;;4880921;29;20171;-84
2022/01/30 02:00:31;;;;;;;26.27;4.40;;;8.10;99.90;;;;;;4881165;29;20604;-84
2022/01/30 02:02:57;;;;;;;24.50;4.47;;;8.00;99.90;;;;;;4879760;29;20205;-84
2022/01/30 02:05:27;;;;;;;17.87;4.57;;;7.90;99.90;;;;;;4881156;29;20687;-84
2022/01/30 02:10:28;;;;;;;23.50;6.80;;;7.80;99.90;;;;;;4881845;29;20182;-84
2022/01/30 02:13:08;;;;;;;21.57;4.33;;;7.70;99.90;;;;;;4880764;29;20170;-84
2022/01/30 02:23:55;;;;;;;21.37;4.33;;;7.80;99.90;;;;;;4880633;29;20628;-84
2022/01/30 02:26:45;;;;;;;27.10;6.23;;;7.70;99.90;;;;;;4884808;29;20187;-84
2022/01/30 02:29:12;;;;;;;19.87;4.87;;;7.70;99.90;;;;;;4880516;29;20209;-84
2022/01/30 02:31:40;;;;;;;18.00;4.93;;;7.70;99.90;;;;;;4880456;29;20171;-85
2022/01/30 02:34:06;;;;;;;17.80;4.10;;;7.70;99.90;;;;;;4880515;29;20205;-84
2022/01/30 02:36:32;;;;;;;31.30;9.37;;;7.70;99.90;;;;;;4880449;29;20169;-84
2022/01/30 02:39:00;;;;;;;29.90;12.87;;;7.70;99.90;;;;;;4880322;29;20263;-84
2022/01/30 02:41:25;;;;;;;19.20;6.20;;;7.70;99.90;;;;;;4880111;29;20177;-84
2022/01/30 02:44:16;;;;;;;18.57;4.23;;;7.70;99.90;;;;;;4880483;29;20244;-85
2022/01/30 02:46:45;;;;;;;29.17;9.93;;;7.70;99.90;;;;;;4880076;29;20205;-85
2022/01/30 02:49:25;;;;;;;24.83;3.97;;;7.70;99.90;;;;;;4879650;29;20293;-87
2022/01/30 02:54:19;;;;;;;19.93;6.07;;;7.70;99.90;;;;;;4881227;29;20250;-83
2022/01/30 02:56:47;;;;;;;21.60;4.23;;;7.70;99.90;;;;;;4879965;29;20222;-84
2022/01/30 02:59:13;;;;;;;25.90;7.97;;;7.60;99.90;;;;;;4880109;29;20185;-84
2022/01/30 03:01:39;;;;;;;12.87;3.33;;;7.70;99.90;;;;;;4880047;29;20272;-84
2022/01/30 03:04:04;;;;;;;34.27;9.70;;;7.60;99.90;;;;;;4880133;29;20272;-84
2022/01/30 03:06:30;;;;;;;17.40;3.47;;;7.60;99.90;;;;;;4879881;29;20210;-84
2022/01/30 03:08:56;;;;;;;27.33;14.30;;;7.50;99.90;;;;;;4879512;29;20181;-84
2022/01/30 03:11:22;;;;;;;19.13;3.80;;;7.50;99.90;;;;;;4879803;29;20642;-84
2022/01/30 03:13:48;;;;;;;17.83;4.67;;;7.50;99.90;;;;;;4879337;29;20170;-84
2022/01/30 03:16:14;;;;;;;42.17;20.77;;;7.50;99.90;;;;;;4880007;29;20326;-84
2022/01/30 03:18:40;;;;;;;25.87;4.43;;;7.40;99.90;;;;;;4879540;29;20181;-84
2022/01/30 03:21:07;;;;;;;15.47;3.97;;;7.40;99.90;;;;;;4879836;29;20187;-84
2022/01/30 03:23:36;;;;;;;16.37;3.63;;;7.50;99.90;;;;;;4879182;29;20216;-84
2022/01/30 03:26:03;;;;;;;22.20;5.20;;;7.40;99.90;;;;;;4879420;29;20183;-84
2022/01/30 03:28:29;;;;;;;20.40;4.00;;;7.40;99.90;;;;;;4879281;29;20193;-84
2022/01/30 03:31:00;;;;;;;36.37;13.30;;;7.40;99.90;;;;;;4879449;29;20254;-84
2022/01/30 03:33:26;;;;;;;21.23;5.33;;;7.40;99.90;;;;;;4879399;29;20208;-84
2022/01/30 03:35:52;;;;;;;50.47;24.43;;;7.50;99.90;;;;;;4879371;29;20547;-86
2022/01/30 03:38:22;;;;;;;32.17;12.77;;;7.50;99.90;;;;;;4878906;29;20163;-84
2022/01/30 03:40:48;;;;;;;27.13;8.33;;;7.40;99.90;;;;;;4879513;29;20173;-85
2022/01/30 03:43:14;;;;;;;27.47;5.60;;;7.20;99.90;;;;;;4878965;29;20241;-84
2022/01/30 03:45:40;;;;;;;33.23;10.33;;;7.20;99.90;;;;;;4879581;29;20705;-86
2022/01/30 03:48:06;;;;;;;25.37;8.33;;;7.30;99.90;;;;;;4879310;29;20177;-86
2022/01/30 03:50:32;;;;;;;78.03;39.77;;;7.20;99.90;;;;;;4880058;29;20214;-86
2022/01/30 03:52:58;;;;;;;47.20;20.17;;;7.20;99.90;;;;;;4878561;29;20627;-86
2022/01/30 03:55:24;;;;;;;27.97;8.57;;;7.20;99.90;;;;;;4878997;29;20174;-87
2022/01/30 03:57:50;;;;;;;15.00;5.17;;;7.10;99.90;;;;;;4878961;29;20599;-84
2022/01/30 04:00:16;;;;;;;18.83;5.70;;;7.00;99.90;;;;;;4879111;29;20212;-84
2022/01/30 04:02:42;;;;;;;18.37;5.27;;;7.10;99.90;;;;;;4878706;29;20230;-86
2022/01/30 04:05:08;;;;;;;23.03;4.40;;;7.10;99.90;;;;;;4879258;29;20665;-84
2022/01/30 04:07:34;;;;;;;38.17;10.90;;;7.10;99.90;;;;;;4878433;29;20171;-84
2022/01/30 04:10:05;;;;;;;27.87;5.20;;;7.20;99.90;;;;;;4878822;29;20183;-86
2022/01/30 04:12:31;;;;;;;22.07;4.03;;;7.20;99.90;;;;;;4878712;29;20201;-84
2022/01/30 04:14:57;;;;;;;25.73;5.03;;;7.20;99.90;;;;;;4878722;29;20652;-84
2022/01/30 04:17:23;;;;;;;28.53;5.17;;;7.10;99.90;;;;;;4878771;29;20250;-84
2022/01/30 04:19:49;;;;;;;22.80;5.30;;;7.00;99.90;;;;;;4878655;29;20182;-84
2022/01/30 04:22:15;;;;;;;22.07;4.17;;;7.00;99.90;;;;;;4878349;29;20220;-84
2022/01/30 04:24:41;;;;;;;21.90;4.70;;;7.00;99.90;;;;;;4877907;29;20635;-84
2022/01/30 04:27:07;;;;;;;21.00;4.03;;;7.00;99.90;;;;;;4878639;29;20265;-84
2022/01/30 04:29:33;;;;;;;16.47;3.77;;;7.00;99.90;;;;;;4878286;29;20285;-84
2022/01/30 04:31:59;;;;;;;23.30;4.50;;;7.20;99.90;;;;;;4878415;29;20175;-84
2022/01/30 04:34:26;;;;;;;17.03;4.43;;;7.10;99.90;;;;;;4878356;29;20186;-84
2022/01/30 04:37:03;;;;;;;17.07;4.20;;;7.10;99.90;;;;;;4878159;29;20185;-84
2022/01/30 04:40:39;;;;;;;21.50;4.40;;;7.10;99.90;;;;;;4878030;29;20176;-84
2022/01/30 04:52:08;;;;;;;10.80;4.33;;;6.90;99.90;;;;;;4879647;29;20198;-86
2022/01/30 04:58:53;;;;;;;26.37;4.73;;;6.70;99.90;;;;;;4879371;29;20197;-84
2022/01/30 05:06:16;;;;;;;16.57;3.60;;;6.80;99.90;;;;;;4878960;29;20178;-84
2022/01/30 05:08:43;;;;;;;14.60;3.90;;;6.80;99.90;;;;;;4878060;29;20323;-86
2022/01/30 05:11:09;;;;;;;19.00;3.33;;;6.90;99.90;;;;;;4878119;29;20309;-86
2022/01/30 05:13:40;;;;;;;25.20;4.53;;;6.80;99.90;;;;;;4878127;29;20621;-84
2022/01/30 05:16:07;;;;;;;18.50;4.03;;;6.80;99.90;;;;;;4877942;29;20182;-84
2022/01/30 05:18:32;;;;;;;17.10;3.90;;;6.80;99.90;;;;;;4878004;29;20621;-84
2022/01/30 05:20:58;;;;;;;18.60;5.03;;;6.90;99.90;;;;;;4877624;29;20269;-84
2022/01/30 05:23:24;;;;;;;17.43;5.00;;;6.80;99.90;;;;;;4877956;29;20218;-86
2022/01/30 05:25:51;;;;;;;21.83;4.30;;;6.80;99.90;;;;;;4877793;29;20184;-83
2022/01/30 05:28:18;;;;;;;24.87;5.80;;;6.80;99.90;;;;;;4878038;29;20174;-84
2022/01/30 05:30:44;;;;;;;28.17;5.70;;;6.70;99.90;;;;;;4878191;29;20650;-86
2022/01/30 05:33:11;;;;;;;21.00;5.17;;;6.80;99.90;;;;;;4878090;29;20185;-86
2022/01/30 05:35:37;;;;;;;19.33;4.70;;;6.80;99.90;;;;;;4877585;29;20335;-86
2022/01/30 05:38:04;;;;;;;20.80;5.83;;;6.80;99.90;;;;;;4881249;29;20178;-86
2022/01/30 05:40:31;;;;;;;27.80;5.57;;;6.60;99.90;;;;;;4881352;29;20182;-87
2022/01/30 05:42:57;;;;;;;17.77;5.27;;;6.60;99.90;;;;;;4881062;29;20209;-84
2022/01/30 05:45:31;;;;;;;22.03;4.67;;;6.50;99.90;;;;;;4881060;29;20166;-85
2022/01/30 05:48:02;;;;;;;24.57;4.67;;;6.60;99.90;;;;;;4877148;29;20646;-85
2022/01/30 05:50:28;;;;;;;26.70;5.40;;;6.60;99.90;;;;;;4880886;29;20220;-86
2022/01/30 05:52:54;;;;;;;20.27;4.03;;;6.70;99.90;;;;;;4881097;29;20662;-85
2022/01/30 05:55:20;;;;;;;29.43;5.40;;;6.70;99.90;;;;;;4881120;29;20167;-85
2022/01/30 05:57:47;;;;;;;25.77;6.00;;;6.60;99.90;;;;;;4881246;29;20178;-85
2022/01/30 06:00:15;;;;;;;17.00;4.17;;;6.60;99.90;;;;;;4880977;29;20210;-86
2022/01/30 06:02:41;;;;;;;27.83;9.23;;;6.50;99.90;;;;;;4880661;29;20198;-86
2022/01/30 06:05:08;;;;;;;24.97;5.73;;;6.50;99.90;;;;;;4880649;29;20166;-86
2022/01/30 06:07:37;;;;;;;18.30;5.13;;;6.50;99.90;;;;;;4880887;29;20181;-86
2022/01/30 06:10:03;;;;;;;15.70;4.10;;;6.60;99.90;;;;;;4880728;29;20261;-85
2022/01/30 06:12:28;;;;;;;23.80;4.60;;;6.70;99.90;;;;;;4880999;29;20257;-84
2022/01/30 06:14:55;;;;;;;16.00;5.60;;;6.90;99.90;;;;;;4880714;29;20185;-86
2022/01/30 06:17:22;;;;;;;20.20;4.50;;;6.90;99.90;;;;;;4880444;29;20170;-84
2022/01/30 06:19:47;;;;;;;25.87;4.83;;;6.70;99.90;;;;;;4880927;29;20249;-84
2022/01/30 06:22:13;;;;;;;24.03;4.30;;;6.70;99.90;;;;;;4880730;29;20624;-84
2022/01/30 06:24:39;;;;;;;24.27;4.60;;;6.80;99.90;;;;;;4880568;29;20181;-86
2022/01/30 06:27:04;;;;;;;14.50;3.73;;;6.80;99.90;;;;;;4880633;29;20174;-86
2022/01/30 06:29:30;;;;;;;18.77;4.40;;;6.70;99.90;;;;;;4880658;29;20198;-86
2022/01/30 06:31:56;;;;;;;23.07;6.20;;;6.80;99.90;;;;;;4880130;29;20265;-85
2022/01/30 06:34:22;;;;;;;34.23;11.53;;;6.80;99.90;;;;;;4880409;29;20749;-86
2022/01/30 06:36:48;;;;;;;27.97;5.37;;;6.70;99.90;;;;;;4880391;29;20209;-85
2022/01/30 06:39:13;;;;;;;21.07;5.73;;;6.70;99.90;;;;;;4880271;29;20207;-86
2022/01/30 06:41:39;;;;;;;19.13;5.17;;;6.70;99.90;;;;;;4880210;29;20182;-85
2022/01/30 06:44:06;;;;;;;28.37;4.40;;;6.70;99.90;;;;;;4880294;29;20568;-85
2022/01/30 06:46:32;;;;;;;28.27;6.47;;;6.80;99.90;;;;;;4879985;29;20175;-86
2022/01/30 06:48:58;;;;;;;23.50;4.60;;;6.80;99.90;;;;;;4879785;29;20180;-86
2022/01/30 06:51:23;;;;;;;18.67;4.70;;;6.80;99.90;;;;;;4879972;29;20711;-85
2022/01/30 06:53:49;;;;;;;20.97;4.97;;;6.60;99.90;;;;;;4880041;29;20177;-85
2022/01/30 06:56:15;;;;;;;23.27;4.37;;;6.50;99.90;;;;;;4879812;29;20181;-85
2022/01/30 06:58:40;;;;;;;21.93;4.80;;;6.50;99.90;;;;;;4880391;29;20197;-85
2022/01/30 07:01:06;;;;;;;17.80;5.10;;;6.40;99.90;;;;;;4879655;29;20170;-85
2022/01/30 07:03:31;;;;;;;20.63;4.53;;;6.40;99.90;;;;;;4880066;29;20725;-86
2022/01/30 07:05:57;;;;;;;28.97;5.03;;;6.40;99.90;;;;;;4880079;29;20182;-86
2022/01/30 07:08:22;;;;;;;23.90;5.37;;;6.40;99.90;;;;;;4879804;29;20174;-85
2022/01/30 07:10:48;;;;;;;32.13;4.97;;;6.50;99.90;;;;;;4879912;29;20179;-83
2022/01/30 07:13:14;;;;;;;19.30;4.93;;;6.50;99.90;;;;;;4879731;29;20786;-85
2022/01/30 07:15:41;;;;;;;24.00;5.40;;;6.50;99.90;;;;;;4879306;29;20287;-84
2022/01/30 07:18:07;;;;;;;22.87;4.47;;;6.40;99.90;;;;;;4879540;29;20182;-84
2022/01/30 07:20:33;;;;;;;29.67;5.33;;;6.40;99.90;;;;;;4879814;29;20181;-86
2022/01/30 07:22:58;;;;;;;22.63;4.40;;;6.40;99.90;;;;;;4879495;29;20210;-86
2022/01/30 07:25:25;;;;;;;27.10;5.07;;;6.30;99.90;;;;;;4879872;29;20185;-87
2022/01/30 07:27:51;;;;;;;28.87;4.90;;;6.40;99.90;;;;;;4879471;29;20185;-87
2022/01/30 07:30:16;;;;;;;18.97;4.73;;;6.40;99.90;;;;;;4879074;29;20256;-84
2022/01/30 07:32:42;;;;;;;21.07;4.23;;;6.40;99.90;;;;;;4879662;29;20210;-83
2022/01/30 07:35:08;;;;;;;24.13;4.87;;;6.40;99.90;;;;;;4879421;29;20212;-85
2022/01/30 07:37:35;;;;;;;18.43;4.47;;;6.40;99.90;;;;;;4879168;29;20179;-87
2022/01/30 07:40:02;;;;;;;26.73;5.03;;;6.70;99.90;;;;;;4879379;29;20674;-85
2022/01/30 07:42:28;;;;;;;24.23;4.37;;;6.80;99.90;;;;;;4879201;29;20292;-84
2022/01/30 07:44:54;;;;;;;20.20;4.63;;;6.80;99.90;;;;;;4879244;29;20178;-86
2022/01/30 07:47:21;;;;;;;21.57;3.90;;;6.90;99.90;;;;;;4878968;29;20189;-86
2022/01/30 07:49:51;;;;;;;21.40;3.90;;;6.70;99.90;;;;;;4878960;29;20238;-86
2022/01/30 07:52:19;;;;;;;22.17;5.63;;;6.80;99.90;;;;;;4878907;29;20192;-86
2022/01/30 07:54:44;;;;;;;19.73;3.90;;;6.80;99.90;;;;;;4879011;29;20177;-84
2022/01/30 07:57:10;;;;;;;24.47;5.20;;;6.90;99.90;;;;;;4879095;29;20182;-85
2022/01/30 07:59:35;;;;;;;18.73;4.27;;;7.00;99.90;;;;;;4877793;29;20642;-86
2022/01/30 08:02:01;;;;;;;27.43;4.87;;;6.90;99.90;;;;;;4878846;29;20186;-86
2022/01/30 08:04:28;;;;;;;31.00;4.70;;;6.90;99.90;;;;;;4879104;29;20181;-86
2022/01/30 08:06:54;;;;;;;27.27;5.30;;;6.90;99.90;;;;;;4878852;29;20197;-85
2022/01/30 08:09:20;;;;;;;24.73;3.90;;;6.90;99.90;;;;;;4878510;29;20178;-86
2022/01/30 08:11:45;;;;;;;23.53;4.47;;;6.90;99.90;;;;;;4879026;29;20266;-86
2022/01/30 08:14:12;;;;;;;19.93;5.10;;;6.90;99.90;;;;;;4878589;29;20688;-86
2022/01/30 08:16:38;;;;;;;20.37;5.10;;;6.80;99.90;;;;;;4879001;29;20224;-86
2022/01/30 08:19:04;;;;;;;23.33;4.50;;;6.80;99.90;;;;;;4878389;29;20185;-85
2022/01/30 08:21:30;;;;;;;21.47;4.93;;;6.70;99.90;;;;;;4878969;29;20679;-86
2022/01/30 08:23:55;;;;;;;21.70;4.97;;;6.80;99.90;;;;;;4878309;29;20213;-86
2022/01/30 08:26:21;;;;;;;20.97;4.30;;;6.90;99.90;;;;;;4878431;29;20173;-86
2022/01/30 08:28:46;;;;;;;21.10;5.33;;;7.10;99.90;;;;;;4878316;29;20195;-86
2022/01/30 08:31:12;;;;;;;20.93;4.10;;;7.10;99.90;;;;;;4878586;29;20177;-85
2022/01/30 08:33:39;;;;;;;24.53;5.60;;;7.00;99.90;;;;;;4878458;29;20647;-85
2022/01/30 08:36:05;;;;;;;20.43;4.37;;;7.00;99.90;;;;;;4878401;29;20170;-86
2022/01/30 08:38:30;;;;;;;27.17;4.60;;;7.20;99.90;;;;;;4878157;29;20166;-85
2022/01/30 08:40:56;;;;;;;19.80;4.30;;;7.30;99.90;;;;;;4878371;29;20203;-86
2022/01/30 08:43:22;;;;;;;13.93;3.70;;;7.40;99.90;;;;;;4877825;29;20203;-85
2022/01/30 08:45:49;;;;;;;23.50;4.97;;;7.30;99.90;;;;;;4878580;29;20225;-86
2022/01/30 08:48:15;;;;;;;18.23;3.70;;;7.30;99.90;;;;;;4878265;29;20178;-86
2022/01/30 08:50:41;;;;;;;17.67;3.73;;;7.30;99.90;;;;;;4878170;29;20191;-86
2022/01/30 08:53:06;;;;;;;20.53;4.47;;;7.30;99.90;;;;;;4878325;29;20185;-86
2022/01/30 08:55:33;;;;;;;24.20;4.27;;;7.20;99.90;;;;;;4878475;29;20683;-86
2022/01/30 08:58:00;;;;;;;24.27;3.70;;;7.30;99.90;;;;;;4877975;29;20703;-86
2022/01/30 09:00:26;;;;;;;16.77;4.23;;;7.30;99.90;;;;;;4878130;29;20182;-86
2022/01/30 09:02:51;;;;;;;22.07;3.97;;;7.40;99.90;;;;;;4878219;29;20218;-86
2022/01/30 09:05:17;;;;;;;24.27;4.17;;;7.50;99.90;;;;;;4878161;29;20179;-86
2022/01/30 09:07:43;;;;;;;30.70;4.03;;;7.60;99.90;;;;;;4877490;29;20325;-96
2022/01/30 09:10:12;;;;;;;18.93;4.07;;;7.60;99.90;;;;;;4878354;29;20226;-91
2022/01/30 09:12:38;;;;;;;20.63;4.87;;;7.70;99.90;;;;;;4862804;29;20172;-94
2022/01/30 09:15:06;;;;;;;16.47;4.07;;;7.70;99.90;;;;;;4863479;29;20166;-93
2022/01/30 09:17:31;;;;;;;19.10;5.17;;;7.60;99.90;;;;;;4864023;29;20186;-92
2022/01/30 09:19:57;;;;;;;24.70;4.53;;;7.60;99.90;;;;;;4863836;29;20335;-94
2022/01/30 09:22:23;;;;;;;23.37;4.57;;;7.60;99.90;;;;;;4866100;29;20210;-96
2022/01/30 09:24:49;;;;;;;18.00;4.30;;;7.50;99.90;;;;;;4874998;29;20573;-92
2022/01/30 09:27:15;;;;;;;16.97;4.03;;;7.40;99.90;;;;;;4881705;29;20192;-91
2022/01/30 09:29:43;;;;;;;23.13;4.20;;;7.40;99.90;;;;;;4881891;29;20198;-91
2022/01/30 09:32:09;;;;;;;18.10;3.93;;;7.30;99.90;;;;;;4880787;29;20182;-90
2022/01/30 09:34:36;;;;;;;23.17;5.00;;;7.20;99.90;;;;;;4882734;29;20181;-93
2022/01/30 09:37:03;;;;;;;22.20;4.77;;;7.20;99.90;;;;;;4881932;29;20173;-94
2022/01/30 09:39:28;;;;;;;15.90;3.83;;;7.20;99.90;;;;;;4880665;29;20178;-92
2022/01/30 09:41:54;;;;;;;18.13;3.97;;;7.20;99.90;;;;;;4881329;29;20189;-92
2022/01/30 09:44:21;;;;;;;21.33;3.83;;;7.20;99.90;;;;;;4881717;29;20766;-95
2022/01/30 09:46:49;;;;;;;24.00;4.60;;;7.20;99.90;;;;;;4882336;29;20179;-94
2022/01/30 09:49:19;;;;;;;13.63;3.77;;;7.30;99.90;;;;;;4878697;29;20249;-88
2022/01/30 09:51:45;;;;;;;18.23;4.80;;;7.30;99.90;;;;;;4873629;29;20233;-89
2022/01/30 09:54:12;;;;;;;16.73;4.50;;;7.30;99.90;;;;;;4892473;29;20256;-91
2022/01/30 09:56:39;;;;;;;24.93;4.93;;;7.40;99.90;;;;;;4900251;29;20652;-94
2022/01/30 09:59:05;;;;;;;22.00;5.23;;;7.50;99.90;;;;;;4888505;29;20195;-94
2022/01/30 10:01:33;;;;;;;22.73;4.97;;;7.50;99.90;;;;;;4880759;29;20553;-91
2022/01/30 10:03:59;;;;;;;19.17;4.57;;;7.60;99.90;;;;;;4881012;29;20217;-91
2022/01/30 10:06:31;;;;;;;29.53;5.07;;;7.50;99.90;;;;;;4880859;29;20187;-91
2022/01/30 10:08:59;;;;;;;26.20;5.83;;;7.50;99.90;;;;;;4880577;29;20207;-92
2022/01/30 10:11:46;;;;;;;20.47;4.43;;;7.40;99.90;;;;;;4880470;29;20193;-93
2022/01/30 10:14:16;;;;;;;18.33;5.10;;;7.40;99.90;;;;;;4880688;29;20184;-92
2022/01/30 10:16:47;;;;;;;22.53;4.87;;;7.40;99.90;;;;;;4881496;29;20281;-86
2022/01/30 10:19:23;;;;;;;18.23;5.07;;;7.50;99.90;;;;;;4871841;29;20187;-92
2022/01/30 10:22:07;;;;;;;17.37;4.50;;;7.70;99.90;;;;;;4880716;29;20177;-94
2022/01/30 10:24:38;;;;;;;19.57;4.60;;;7.70;99.90;;;;;;4880173;29;20656;-89
2022/01/30 10:27:22;;;;;;;27.17;5.33;;;7.70;99.90;;;;;;4880578;29;20639;-90
2022/01/30 10:29:57;;;;;;;21.10;4.70;;;7.70;99.90;;;;;;4874259;29;20316;-93
2022/01/30 10:32:23;;;;;;;17.63;4.00;;;7.80;99.90;;;;;;4881261;29;20174;-92
2022/01/30 10:35:05;;;;;;;25.93;5.87;;;7.80;99.90;;;;;;4880460;29;20221;-93
2022/01/30 10:37:30;;;;;;;20.33;5.00;;;8.00;99.90;;;;;;4880453;29;20593;-93
2022/01/30 10:40:24;;;;;;;21.43;4.70;;;8.10;99.90;;;;;;4880547;29;20216;-91
2022/01/30 10:42:51;;;;;;;26.20;4.63;;;8.20;99.90;;;;;;4879555;29;20203;-87
2022/01/30 10:45:31;;;;;;;21.43;4.50;;;8.30;99.90;;;;;;4880482;29;20638;-92
2022/01/30 10:48:17;;;;;;;19.10;4.73;;;8.60;99.90;;;;;;4880862;29;20182;-94
2022/01/30 10:50:45;;;;;;;23.37;4.77;;;9.10;99.90;;;;;;4880047;29;20262;-93
2022/01/30 10:53:18;;;;;;;16.93;5.13;;;9.80;99.90;;;;;;4879608;29;20556;-93
2022/01/30 10:55:45;;;;;;;17.83;5.30;;;10.30;99.90;;;;;;4880371;29;20173;-92
2022/01/30 10:58:18;;;;;;;18.23;3.97;;;10.40;99.90;;;;;;4879673;29;20182;-88
2022/01/30 11:00:47;;;;;;;16.37;3.90;;;11.10;99.90;;;;;;4879591;29;20170;-93
2022/01/30 11:03:37;;;;;;;16.70;4.00;;;11.70;99.90;;;;;;4879731;29;20213;-91
2022/01/30 11:06:04;;;;;;;23.57;4.23;;;12.50;99.90;;;;;;4880134;29;20553;-95
2022/01/30 11:08:31;;;;;;;14.53;4.10;;;13.20;99.90;;;;;;4879600;29;20210;-92
2022/01/30 11:11:02;;;;;;;20.47;4.57;;;13.90;99.90;;;;;;4878671;29;20184;-95
2022/01/30 11:13:32;;;;;;;23.17;5.40;;;14.70;99.90;;;;;;4879480;29;20191;-94
2022/01/30 11:16:56;;;;;;;18.53;4.30;;;15.50;99.90;;;;;;4880047;29;20180;-94
2022/01/30 11:18:51;;;;;;;14.63;3.73;;;16.10;98.40;;;;;;4878733;29;20619;-94
2022/01/30 11:21:22;;;;;;;17.60;3.70;;;16.30;97.60;;;;;;4879744;29;20264;-93
2022/01/30 11:23:51;;;;;;;13.67;3.93;;;16.80;96.60;;;;;;4879646;29;20241;-94
2022/01/30 11:26:18;;;;;;;13.57;3.30;;;17.10;95.90;;;;;;4879580;29;20348;-95
2022/01/30 11:28:45;;;;;;;11.87;3.40;;;17.40;95.50;;;;;;4879384;29;20251;-94
2022/01/30 11:31:16;;;;;;;10.80;2.63;;;18.00;94.60;;;;;;4881378;29;20204;-94
2022/01/30 11:33:43;;;;;;;13.70;2.90;;;18.00;93.60;;;;;;4880033;29;20299;-93
2022/01/30 11:36:10;;;;;;;14.37;3.30;;;17.10;93.60;;;;;;4879176;29;20640;-93
2022/01/30 11:38:37;;;;;;;13.07;3.30;;;15.70;95.40;;;;;;4880086;29;20289;-95
2022/01/30 11:41:17;;;;;;;17.40;3.73;;;14.40;97.00;;;;;;4879336;29;20168;-93
2022/01/30 11:44:17;;;;;;;15.10;3.23;;;13.10;99.50;;;;;;4877932;29;20238;-93
2022/01/30 11:46:52;;;;;;;17.77;3.47;;;12.60;99.90;;;;;;4871890;29;20554;-88
2022/01/30 11:49:18;;;;;;;15.17;3.40;;;12.30;99.90;;;;;;4879525;29;20194;-92
2022/01/30 11:51:51;;;;;;;23.17;4.10;;;12.10;99.90;;;;;;4878789;29;20527;-93
2022/01/30 11:54:43;;;;;;;19.50;3.13;;;11.60;99.90;;;;;;4880188;29;20178;-93
2022/01/30 11:57:18;;;;;;;19.47;3.43;;;11.40;99.90;;;;;;4879181;29;20174;-93
2022/01/30 11:59:45;;;;;;;16.60;2.50;;;11.10;99.90;;;;;;4878750;29;20272;-93
2022/01/30 12:02:36;;;;;;;21.07;4.07;;;11.00;99.90;;;;;;4878741;29;20174;-93
2022/01/30 12:05:06;;;;;;;19.27;3.50;;;10.80;99.90;;;;;;4883988;29;20182;-91
2022/01/30 12:07:45;;;;;;;13.43;3.50;;;10.60;99.90;;;;;;4885727;29;20718;-88
2022/01/30 12:10:20;;;;;;;18.23;4.00;;;10.60;99.90;;;;;;4880913;29;20174;-92
2022/01/30 12:12:50;;;;;;;16.50;3.40;;;10.60;99.90;;;;;;4878482;29;20181;-94
2022/01/30 12:15:41;;;;;;;18.37;3.40;;;10.50;99.90;;;;;;4878494;29;20181;-92
2022/01/30 12:18:37;;;;;;;15.43;3.83;;;10.60;99.90;;;;;;4879008;29;20196;-96
2022/01/30 12:21:05;;;;;;;17.37;3.33;;;10.60;99.90;;;;;;4880799;29;20604;-92
2022/01/30 12:23:38;;;;;;;16.73;3.30;;;10.50;99.90;;;;;;4881466;29;20206;-93
2022/01/30 12:26:09;;;;;;;22.80;3.63;;;10.50;99.90;;;;;;4879940;29;20174;-91
2022/01/30 12:28:52;;;;;;;12.13;3.27;;;10.60;99.90;;;;;;4880145;29;20258;-93
2022/01/30 12:31:35;;;;;;;17.73;4.10;;;12.00;99.90;;;;;;4879064;29;20234;-93
2022/01/30 12:34:14;;;;;;;15.47;3.00;;;13.60;99.90;;;;;;4872316;29;20179;-91
2022/01/30 12:36:51;;;;;;;18.17;3.53;;;14.10;98.50;;;;;;4879207;29;20164;-92
2022/01/30 12:39:21;;;;;;;13.10;3.37;;;14.90;97.90;;;;;;4879193;29;20219;-93
2022/01/30 12:41:48;;;;;;;13.63;3.23;;;16.10;96.20;;;;;;4879858;29;20181;-87
2022/01/30 12:44:16;;;;;;;13.03;3.27;;;16.60;94.40;;;;;;4878836;29;20216;-92
2022/01/30 12:46:48;;;;;;;12.97;3.10;;;16.40;94.00;;;;;;4877631;29;20180;-93
2022/01/30 12:49:21;;;;;;;12.13;2.53;;;16.30;93.50;;;;;;4878203;29;20257;-92
2022/01/30 12:51:50;;;;;;;14.13;3.97;;;16.20;92.90;;;;;;4878305;29;20554;-93
2022/01/30 12:54:19;;;;;;;10.47;2.17;;;15.30;93.70;;;;;;4878525;29;20222;-92
2022/01/30 12:56:46;;;;;;;16.47;2.97;;;14.90;93.50;;;;;;4879681;29;20660;-89
2022/01/30 12:59:13;;;;;;;14.57;3.03;;;14.20;94.60;;;;;;4878669;29;20230;-92
2022/01/30 13:01:42;;;;;;;11.97;2.77;;;13.70;95.60;;;;;;4878280;29;20314;-92
2022/01/30 13:04:13;;;;;;;13.10;2.70;;;13.80;96.00;;;;;;4878134;29;20218;-92
2022/01/30 13:06:45;;;;;;;11.10;2.80;;;14.50;95.10;;;;;;4877977;29;20174;-93
2022/01/30 13:09:21;;;;;;;11.67;2.37;;;15.00;94.30;;;;;;4877449;29;20226;-92
2022/01/30 13:11:48;;;;;;;15.17;2.53;;;15.40;93.40;;;;;;4877794;29;20180;-91
2022/01/30 13:14:14;;;;;;;12.67;2.80;;;15.00;93.00;;;;;;4879476;29;20206;-93
2022/01/30 13:16:41;;;;;;;14.20;2.50;;;14.80;93.30;;;;;;4878762;29;20596;-91
2022/01/30 13:19:09;;;;;;;13.17;2.90;;;14.30;94.30;;;;;;4877811;29;20266;-93
2022/01/30 13:21:36;;;;;;;11.33;2.97;;;14.00;94.70;;;;;;4878334;29;20166;-92
2022/01/30 13:24:04;;;;;;;14.70;2.90;;;13.70;95.20;;;;;;4878140;29;20211;-90
2022/01/30 13:26:33;;;;;;;14.57;2.90;;;13.50;95.80;;;;;;4881800;29;20255;-90
2022/01/30 13:29:01;;;;;;;16.50;3.10;;;13.40;94.70;;;;;;4880430;29;20286;-96
2022/01/30 13:48:04;;;;;;;18.23;3.27;;;12.80;97.20;;;;;;4930824;29;20180;-86
2022/01/30 13:50:45;;;;;;;15.20;3.00;;;12.60;97.50;;;;;;4918547;29;20289;-88
2022/01/30 13:53:24;;;;;;;15.33;2.57;;;12.50;97.70;;;;;;4935411;29;20614;-86
2022/01/30 13:55:51;;;;;;;13.63;3.27;;;12.40;98.00;;;;;;4918380;29;20637;-86
2022/01/30 13:58:18;;;;;;;14.43;2.83;;;12.40;97.90;;;;;;4936286;29;20526;-87
2022/01/30 14:00:44;;;;;;;10.43;2.83;;;12.40;97.90;;;;;;4932000;29;20259;-86
2022/01/30 14:03:10;;;;;;;15.67;3.27;;;12.20;98.20;;;;;;4940831;29;20279;-86